sensor_id;sensor_type;location;lat;lon;timestamp;pressure;altitude;pressure_sealevel;temperature;humidity
62708;BME280;48769;51.624;5.886;2023-03-16T00:01:59;101641.03;;;5.29;84.79
62708;BME280;48769;51.624;5.886;2023-03-16T00:04:25;101636.59;;;5.32;83.98
62708;BME280;48769;51.624;5.886;2023-03-16T00:06:50;101642.78;;;5.28;84.12
62708;BME280;48769;51.624;5.886;2023-03-16T00:09:16;101633.16;;;5.29;84.14
62708;BME280;48769;51.624;5.886;2023-03-16T00:11:41;101624.44;;;5.28;83.99
62708;BME280;48769;51.624;5.886;2023-03-16T00:14:07;101627.91;;;5.30;83.46
62708;BME280;48769;51.624;5.886;2023-03-16T00:16:32;101625.31;;;5.30;83.07
62708;BME280;48769;51.624;5.886;2023-03-16T00:18:59;101630.69;;;5.21;83.52
62708;BME280;48769;51.624;5.886;2023-03-16T00:21:28;101628.97;;;5.19;84.26
62708;BME280;48769;51.624;5.886;2023-03-16T00:23:55;101630.59;;;5.26;84.05
62708;BME280;48769;51.624;5.886;2023-03-16T00:26:20;101631.50;;;5.25;83.85
62708;BME280;48769;51.624;5.886;2023-03-16T00:28:46;101628.97;;;5.20;83.28
62708;BME280;48769;51.624;5.886;2023-03-16T00:31:12;101636.88;;;5.17;84.58
62708;BME280;48769;51.624;5.886;2023-03-16T00:33:41;101620.22;;;5.20;84.22
62708;BME280;48769;51.624;5.886;2023-03-16T00:36:07;101615.81;;;5.23;83.89
62708;BME280;48769;51.624;5.886;2023-03-16T00:38:35;101617.56;;;5.23;85.16
62708;BME280;48769;51.624;5.886;2023-03-16T00:41:01;101621.94;;;5.22;84.15
62708;BME280;48769;51.624;5.886;2023-03-16T00:43:29;101618.50;;;5.19;84.62
62708;BME280;48769;51.624;5.886;2023-03-16T00:45:58;101624.69;;;5.14;85.87
62708;BME280;48769;51.624;5.886;2023-03-16T00:48:30;101611.69;;;5.07;87.15
62708;BME280;48769;51.624;5.886;2023-03-16T00:50:59;101607.25;;;5.12;86.15
62708;BME280;48769;51.624;5.886;2023-03-16T00:53:24;101595.06;;;5.11;85.97
62708;BME280;48769;51.624;5.886;2023-03-16T00:55:50;101592.50;;;5.08;86.67
62708;BME280;48769;51.624;5.886;2023-03-16T00:58:17;101605.59;;;5.08;86.20
62708;BME280;48769;51.624;5.886;2023-03-16T01:00:44;101591.69;;;5.03;87.43
62708;BME280;48769;51.624;5.886;2023-03-16T01:03:10;101597.75;;;5.06;87.33
62708;BME280;48769;51.624;5.886;2023-03-16T01:05:39;101591.69;;;5.04;86.87
62708;BME280;48769;51.624;5.886;2023-03-16T01:08:04;101579.47;;;5.05;87.65
62708;BME280;48769;51.624;5.886;2023-03-16T01:10:30;101584.69;;;5.05;87.72
62708;BME280;48769;51.624;5.886;2023-03-16T01:12:55;101575.97;;;5.04;88.17
62708;BME280;48769;51.624;5.886;2023-03-16T01:15:21;101580.28;;;5.07;87.93
62708;BME280;48769;51.624;5.886;2023-03-16T01:17:46;101578.50;;;5.09;87.96
62708;BME280;48769;51.624;5.886;2023-03-16T01:20:12;101580.31;;;5.05;88.56
62708;BME280;48769;51.624;5.886;2023-03-16T01:22:39;101582.00;;;5.09;88.60
62708;BME280;48769;51.624;5.886;2023-03-16T01:25:06;101561.03;;;5.11;87.67
62708;BME280;48769;51.624;5.886;2023-03-16T01:27:32;101553.16;;;5.11;87.66
62708;BME280;48769;51.624;5.886;2023-03-16T01:29:57;101553.19;;;5.09;87.67
62708;BME280;48769;51.624;5.886;2023-03-16T01:32:22;101550.59;;;5.06;88.05
62708;BME280;48769;51.624;5.886;2023-03-16T01:34:48;101558.47;;;5.08;88.00
62708;BME280;48769;51.624;5.886;2023-03-16T01:37:13;101550.59;;;5.06;88.14
62708;BME280;48769;51.624;5.886;2023-03-16T01:39:38;101544.63;;;5.00;88.78
62708;BME280;48769;51.624;5.886;2023-03-16T01:42:04;101543.00;;;4.92;88.39
62708;BME280;48769;51.624;5.886;2023-03-16T01:47:16;101536.16;;;4.85;88.83
62708;BME280;48769;51.624;5.886;2023-03-16T01:49:42;101535.34;;;4.82;89.48
62708;BME280;48769;51.624;5.886;2023-03-16T01:52:15;101534.53;;;4.78;90.21
62708;BME280;48769;51.624;5.886;2023-03-16T01:54:47;101530.97;;;4.82;90.06
62708;BME280;48769;51.624;5.886;2023-03-16T01:57:26;101534.44;;;4.84;90.05
62708;BME280;48769;51.624;5.886;2023-03-16T01:59:58;101530.00;;;4.86;89.21
62708;BME280;48769;51.624;5.886;2023-03-16T02:02:33;101530.91;;;4.85;89.44
62708;BME280;48769;51.624;5.886;2023-03-16T02:05:05;101526.47;;;4.89;89.63
62708;BME280;48769;51.624;5.886;2023-03-16T02:07:39;101524.66;;;4.94;88.68
62708;BME280;48769;51.624;5.886;2023-03-16T02:10:07;101506.53;;;4.82;90.12
62708;BME280;48769;51.624;5.886;2023-03-16T02:12:33;101529.16;;;4.86;89.72
62708;BME280;48769;51.624;5.886;2023-03-16T02:14:59;101523.97;;;4.84;90.10
62708;BME280;48769;51.624;5.886;2023-03-16T02:17:27;101515.16;;;4.88;89.86
62708;BME280;48769;51.624;5.886;2023-03-16T02:20:12;101516.03;;;4.87;90.79
62708;BME280;48769;51.624;5.886;2023-03-16T02:22:47;101497.66;;;4.90;90.37
62708;BME280;48769;51.624;5.886;2023-03-16T02:25:15;101494.97;;;4.95;90.82
62708;BME280;48769;51.624;5.886;2023-03-16T02:28:09;101491.50;;;4.93;90.71
62708;BME280;48769;51.624;5.886;2023-03-16T02:30:39;101495.81;;;4.96;90.80
62708;BME280;48769;51.624;5.886;2023-03-16T02:33:05;101498.44;;;4.96;91.20
62708;BME280;48769;51.624;5.886;2023-03-16T02:35:31;101487.00;;;5.00;90.53
62708;BME280;48769;51.624;5.886;2023-03-16T02:37:57;101487.00;;;5.00;90.00
62708;BME280;48769;51.624;5.886;2023-03-16T02:40:31;101483.56;;;4.98;90.09
62708;BME280;48769;51.624;5.886;2023-03-16T02:45:38;101487.69;;;5.11;87.67
62708;BME280;48769;51.624;5.886;2023-03-16T02:48:11;101495.66;;;5.03;87.81
62708;BME280;48769;51.624;5.886;2023-03-16T02:50:51;101491.28;;;5.05;87.61
62708;BME280;48769;51.624;5.886;2023-03-16T02:53:17;101489.47;;;5.09;87.65
62708;BME280;48769;51.624;5.886;2023-03-16T02:55:43;101484.19;;;5.12;87.12
62708;BME280;48769;51.624;5.886;2023-03-16T02:58:10;101485.03;;;5.14;86.54
62708;BME280;48769;51.624;5.886;2023-03-16T03:00:36;101485.81;;;5.18;86.90
62708;BME280;48769;51.624;5.886;2023-03-16T03:03:03;101485.03;;;5.12;87.03
62708;BME280;48769;51.624;5.886;2023-03-16T03:05:28;101490.25;;;5.14;86.76
62708;BME280;48769;51.624;5.886;2023-03-16T03:07:53;101490.25;;;5.14;87.76
62708;BME280;48769;51.624;5.886;2023-03-16T03:10:19;101477.09;;;5.17;87.25
62708;BME280;48769;51.624;5.886;2023-03-16T03:12:44;101475.34;;;5.18;85.82
62708;BME280;48769;51.624;5.886;2023-03-16T03:15:13;101476.22;;;5.16;86.59
62708;BME280;48769;51.624;5.886;2023-03-16T03:17:38;101483.16;;;5.19;86.87
62708;BME280;48769;51.624;5.886;2023-03-16T03:20:04;101478.84;;;5.16;86.82
62708;BME280;48769;51.624;5.886;2023-03-16T03:22:38;101470.97;;;5.18;86.77
62708;BME280;48769;51.624;5.886;2023-03-16T03:25:03;101471.03;;;5.15;87.33
62708;BME280;48769;51.624;5.886;2023-03-16T03:27:28;101479.78;;;5.14;87.87
62708;BME280;48769;51.624;5.886;2023-03-16T03:29:54;101472.00;;;5.09;88.32
62708;BME280;48769;51.624;5.886;2023-03-16T03:32:19;101477.16;;;5.14;88.38
62708;BME280;48769;51.624;5.886;2023-03-16T03:34:45;101478.06;;;5.11;88.60
62708;BME280;48769;51.624;5.886;2023-03-16T03:37:11;101475.47;;;5.10;89.50
62708;BME280;48769;51.624;5.886;2023-03-16T03:39:36;101469.47;;;5.05;90.24
62708;BME280;48769;51.624;5.886;2023-03-16T03:42:04;101460.66;;;5.09;89.57
62708;BME280;48769;51.624;5.886;2023-03-16T03:44:30;101470.22;;;5.11;89.78
62708;BME280;48769;51.624;5.886;2023-03-16T03:46:59;101458.88;;;5.11;90.88
62708;BME280;48769;51.624;5.886;2023-03-16T03:49:25;101462.56;;;5.01;92.34
62708;BME280;48769;51.624;5.886;2023-03-16T03:51:50;101462.59;;;4.99;91.82
62708;BME280;48769;51.624;5.886;2023-03-16T03:54:15;101458.16;;;5.03;92.20
62708;BME280;48769;51.624;5.886;2023-03-16T03:56:41;101455.66;;;4.97;93.19
62708;BME280;48769;51.624;5.886;2023-03-16T03:59:06;101450.34;;;5.00;93.39
62708;BME280;48769;51.624;5.886;2023-03-16T04:01:32;101448.63;;;4.99;93.77
62708;BME280;48769;51.624;5.886;2023-03-16T04:03:57;101443.25;;;5.06;92.07
62708;BME280;48769;51.624;5.886;2023-03-16T04:06:23;101447.66;;;5.04;92.54
62708;BME280;48769;51.624;5.886;2023-03-16T04:08:48;101439.94;;;4.97;93.42
62708;BME280;48769;51.624;5.886;2023-03-16T04:11:15;101452.13;;;4.99;93.30
62708;BME280;48769;51.624;5.886;2023-03-16T04:13:40;101446.03;;;4.99;92.16
62708;BME280;48769;51.624;5.886;2023-03-16T04:16:06;101446.91;;;4.98;92.01
62708;BME280;48769;51.624;5.886;2023-03-16T04:18:31;101428.53;;;4.99;91.44
62708;BME280;48769;51.624;5.886;2023-03-16T04:21:05;101436.44;;;4.98;92.02
62708;BME280;48769;51.624;5.886;2023-03-16T04:23:31;101434.59;;;5.03;91.50
62708;BME280;48769;51.624;5.886;2023-03-16T04:26:00;101436.25;;;5.07;90.82
62708;BME280;48769;51.624;5.886;2023-03-16T04:28:26;101443.31;;;5.03;90.92
62708;BME280;48769;51.624;5.886;2023-03-16T04:30:52;101443.41;;;4.99;91.20
62708;BME280;48769;51.624;5.886;2023-03-16T04:33:20;101445.06;;;5.03;90.79
62708;BME280;48769;51.624;5.886;2023-03-16T04:35:46;101443.34;;;5.02;90.68
62708;BME280;48769;51.624;5.886;2023-03-16T04:38:12;101433.78;;;5.01;90.75
62708;BME280;48769;51.624;5.886;2023-03-16T04:40:37;101434.69;;;4.97;91.40
62708;BME280;48769;51.624;5.886;2023-03-16T04:43:03;101425.09;;;4.97;90.56
62708;BME280;48769;51.624;5.886;2023-03-16T04:45:28;101421.59;;;4.98;90.31
62708;BME280;48769;51.624;5.886;2023-03-16T04:47:53;101432.94;;;4.99;90.13
62708;BME280;48769;51.624;5.886;2023-03-16T04:50:19;101422.47;;;4.97;90.63
62708;BME280;48769;51.624;5.886;2023-03-16T04:52:44;101429.41;;;5.00;89.82
62708;BME280;48769;51.624;5.886;2023-03-16T04:55:09;101427.81;;;4.92;91.23
62708;BME280;48769;51.624;5.886;2023-03-16T04:57:35;101413.69;;;5.00;90.63
62708;BME280;48769;51.624;5.886;2023-03-16T05:00:00;101416.16;;;5.09;90.15
62708;BME280;48769;51.624;5.886;2023-03-16T05:02:26;101419.69;;;5.06;90.03
62708;BME280;48769;51.624;5.886;2023-03-16T05:04:51;101417.03;;;5.08;89.63
62708;BME280;48769;51.624;5.886;2023-03-16T05:07:17;101412.72;;;5.05;89.58
62708;BME280;48769;51.624;5.886;2023-03-16T05:09:43;101416.25;;;5.04;89.54
62708;BME280;48769;51.624;5.886;2023-03-16T05:12:08;101410.22;;;4.99;90.66
62708;BME280;48769;51.624;5.886;2023-03-16T05:14:34;101410.06;;;5.07;89.27
62708;BME280;48769;51.624;5.886;2023-03-16T05:17:00;101404.81;;;5.07;88.60
62708;BME280;48769;51.624;5.886;2023-03-16T05:19:28;101410.16;;;5.04;89.22
62708;BME280;48769;51.624;5.886;2023-03-16T05:21:54;101410.16;;;5.02;89.35
62708;BME280;48769;51.624;5.886;2023-03-16T05:24:21;101404.09;;;5.00;89.42
62708;BME280;48769;51.624;5.886;2023-03-16T05:26:48;101401.50;;;4.99;89.93
62708;BME280;48769;51.624;5.886;2023-03-16T05:29:13;101406.69;;;5.02;90.04
62708;BME280;48769;51.624;5.886;2023-03-16T05:31:39;101405.03;;;4.96;91.02
62708;BME280;48769;51.624;5.886;2023-03-16T05:34:04;101402.38;;;4.99;90.41
62708;BME280;48769;51.624;5.886;2023-03-16T05:36:30;101400.72;;;4.95;90.19
62708;BME280;48769;51.624;5.886;2023-03-16T05:38:55;101394.50;;;5.01;90.66
62708;BME280;48769;51.624;5.886;2023-03-16T05:41:21;101395.25;;;5.06;90.52
62708;BME280;48769;51.624;5.886;2023-03-16T05:43:47;101400.50;;;5.06;90.47
62708;BME280;48769;51.624;5.886;2023-03-16T05:46:13;101401.47;;;5.00;90.78
62708;BME280;48769;51.624;5.886;2023-03-16T05:48:38;101403.97;;;5.06;89.91
62708;BME280;48769;51.624;5.886;2023-03-16T05:51:04;101408.28;;;5.09;89.87
62708;BME280;48769;51.624;5.886;2023-03-16T05:53:31;101402.13;;;5.11;89.92
62708;BME280;48769;51.624;5.886;2023-03-16T05:55:56;101403.84;;;5.12;89.05
62708;BME280;48769;51.624;5.886;2023-03-16T05:58:22;101403.78;;;5.17;89.21
62708;BME280;48769;51.624;5.886;2023-03-16T06:00:47;101407.13;;;5.24;88.98
62708;BME280;48769;51.624;5.886;2023-03-16T06:03:14;101402.75;;;5.24;89.49
62708;BME280;48769;51.624;5.886;2023-03-16T06:05:39;101404.41;;;5.28;89.36
62708;BME280;48769;51.624;5.886;2023-03-16T06:08:05;101400.88;;;5.29;89.73
62708;BME280;48769;51.624;5.886;2023-03-16T06:10:31;101400.88;;;5.29;89.60
62708;BME280;48769;51.624;5.886;2023-03-16T06:12:56;101394.81;;;5.27;89.56
62708;BME280;48769;51.624;5.886;2023-03-16T06:15:22;101396.44;;;5.33;89.91
62708;BME280;48769;51.624;5.886;2023-03-16T06:17:49;101392.97;;;5.32;89.62
62708;BME280;48769;51.624;5.886;2023-03-16T06:20:14;101392.22;;;5.27;90.06
62708;BME280;48769;51.624;5.886;2023-03-16T06:22:42;101393.94;;;5.28;90.42
62708;BME280;48769;51.624;5.886;2023-03-16T06:25:09;101392.03;;;5.36;89.72
62708;BME280;48769;51.624;5.886;2023-03-16T06:27:36;101396.16;;;5.47;89.47
62708;BME280;48769;51.624;5.886;2023-03-16T06:30:02;101393.44;;;5.51;89.14
62708;BME280;48769;51.624;5.886;2023-03-16T06:32:28;101396.00;;;5.54;89.28
62708;BME280;48769;51.624;5.886;2023-03-16T06:34:53;101395.91;;;5.59;88.78
62708;BME280;48769;51.624;5.886;2023-03-16T06:37:18;101394.09;;;5.61;89.03
62708;BME280;48769;51.624;5.886;2023-03-16T06:39:44;101396.72;;;5.61;89.85
62708;BME280;48769;51.624;5.886;2023-03-16T06:42:09;101398.44;;;5.62;89.03
62708;BME280;48769;51.624;5.886;2023-03-16T06:44:35;101394.81;;;5.69;88.46
62708;BME280;48769;51.624;5.886;2023-03-16T06:47:01;101401.88;;;5.64;89.82
62708;BME280;48769;51.624;5.886;2023-03-16T06:49:28;101397.44;;;5.68;89.43
62708;BME280;48769;51.624;5.886;2023-03-16T06:51:53;101392.25;;;5.65;90.06
62708;BME280;48769;51.624;5.886;2023-03-16T06:54:19;101396.59;;;5.67;90.57
62708;BME280;48769;51.624;5.886;2023-03-16T06:56:44;101398.22;;;5.71;91.14
62708;BME280;48769;51.624;5.886;2023-03-16T06:59:09;101405.16;;;5.75;90.63
62708;BME280;48769;51.624;5.886;2023-03-16T07:01:35;101401.88;;;5.66;91.92
62708;BME280;48769;51.624;5.886;2023-03-16T07:04:00;101399.41;;;5.58;93.66
62708;BME280;48769;51.624;5.886;2023-03-16T07:06:25;101400.91;;;5.68;92.99
62708;BME280;48769;51.624;5.886;2023-03-16T07:08:51;101403.59;;;5.65;94.02
62708;BME280;48769;51.624;5.886;2023-03-16T07:11:16;101414.16;;;5.62;95.69
62708;BME280;48769;51.624;5.886;2023-03-16T07:13:42;101412.38;;;5.64;96.69
62708;BME280;48769;51.624;5.886;2023-03-16T07:16:08;101413.28;;;5.63;98.12
62708;BME280;48769;51.624;5.886;2023-03-16T07:18:34;101408.91;;;5.62;98.55
62708;BME280;48769;51.624;5.886;2023-03-16T07:21:01;101398.28;;;5.68;99.00
62708;BME280;48769;51.624;5.886;2023-03-16T07:23:28;101397.50;;;5.65;100.00
62708;BME280;48769;51.624;5.886;2023-03-16T07:25:53;101401.88;;;5.64;100.00
62708;BME280;48769;51.624;5.886;2023-03-16T07:28:18;101394.81;;;5.69;100.00
62708;BME280;48769;51.624;5.886;2023-03-16T07:30:44;101391.94;;;5.80;100.00
62708;BME280;48769;51.624;5.886;2023-03-16T07:33:10;101398.88;;;5.82;100.00
62708;BME280;48769;51.624;5.886;2023-03-16T07:35:36;101396.03;;;5.92;99.59
62708;BME280;48769;51.624;5.886;2023-03-16T07:38:01;101397.56;;;6.02;99.75
62708;BME280;48769;51.624;5.886;2023-03-16T07:40:27;101399.34;;;6.01;99.45
62708;BME280;48769;51.624;5.886;2023-03-16T07:42:52;101393.38;;;5.95;99.27
62708;BME280;48769;51.624;5.886;2023-03-16T07:45:17;101401.06;;;6.01;100.00
62708;BME280;48769;51.624;5.886;2023-03-16T07:47:43;101401.97;;;6.00;100.00
62708;BME280;48769;51.624;5.886;2023-03-16T07:50:10;101401.06;;;6.01;98.88
62708;BME280;48769;51.624;5.886;2023-03-16T07:52:35;101406.09;;;6.10;99.19
62708;BME280;48769;51.624;5.886;2023-03-16T07:55:01;101394.81;;;6.08;99.59
62708;BME280;48769;51.624;5.886;2023-03-16T07:57:26;101401.78;;;6.07;100.00
62708;BME280;48769;51.624;5.886;2023-03-16T07:59:51;101395.81;;;6.02;100.00
62708;BME280;48769;51.624;5.886;2023-03-16T08:02:18;101394.88;;;6.05;100.00
62708;BME280;48769;51.624;5.886;2023-03-16T08:04:44;101392.19;;;6.08;100.00
62708;BME280;48769;51.624;5.886;2023-03-16T08:07:11;101400.84;;;6.10;100.00
62708;BME280;48769;51.624;5.886;2023-03-16T08:09:37;101400.72;;;6.16;100.00
62708;BME280;48769;51.624;5.886;2023-03-16T08:12:03;101395.63;;;6.10;100.00
62708;BME280;48769;51.624;5.886;2023-03-16T08:14:31;101386.53;;;6.23;99.96
62708;BME280;48769;51.624;5.886;2023-03-16T08:16:59;101383.97;;;6.22;100.00
62708;BME280;48769;51.624;5.886;2023-03-16T08:19:25;101381.63;;;6.11;100.00
62708;BME280;48769;51.624;5.886;2023-03-16T08:21:51;101382.19;;;6.22;100.00
62708;BME280;48769;51.624;5.886;2023-03-16T08:24:16;101373.66;;;6.14;100.00
62708;BME280;48769;51.624;5.886;2023-03-16T08:26:41;101375.94;;;6.28;100.00
62708;BME280;48769;51.624;5.886;2023-03-16T08:29:07;101379.44;;;6.28;100.00
62708;BME280;48769;51.624;5.886;2023-03-16T08:31:32;101377.22;;;6.46;100.00
62708;BME280;48769;51.624;5.886;2023-03-16T08:33:59;101381.34;;;6.56;98.84
62708;BME280;48769;51.624;5.886;2023-03-16T08:36:25;101366.34;;;6.61;98.28
62708;BME280;48769;51.624;5.886;2023-03-16T08:38:52;101367.88;;;6.68;97.64
62708;BME280;48769;51.624;5.886;2023-03-16T08:41:19;101372.66;;;6.87;98.21
62708;BME280;48769;51.624;5.886;2023-03-16T08:43:44;101368.63;;;7.05;98.14
62708;BME280;48769;51.624;5.886;2023-03-16T08:46:11;101362.91;;;7.21;97.20
62708;BME280;48769;51.624;5.886;2023-03-16T08:48:38;101354.13;;;7.22;95.60
62708;BME280;48769;51.624;5.886;2023-03-16T08:51:05;101350.22;;;7.36;93.69
62708;BME280;48769;51.624;5.886;2023-03-16T08:53:30;101355.28;;;7.42;93.09
62708;BME280;48769;51.624;5.886;2023-03-16T08:56:03;101353.25;;;7.22;92.75
62708;BME280;48769;51.624;5.886;2023-03-16T08:58:34;101345.06;;;7.31;92.27
62708;BME280;48769;51.624;5.886;2023-03-16T09:01:01;101350.78;;;7.45;92.44
62708;BME280;48769;51.624;5.886;2023-03-16T09:03:27;101347.41;;;7.42;92.56
62708;BME280;48769;51.624;5.886;2023-03-16T09:05:58;101345.94;;;7.61;91.70
62708;BME280;48769;51.624;5.886;2023-03-16T09:08:24;101355.09;;;7.76;90.83
62708;BME280;48769;51.624;5.886;2023-03-16T09:10:49;101345.03;;;7.89;89.35
62708;BME280;48769;51.624;5.886;2023-03-16T09:13:15;101341.19;;;7.99;89.77
62708;BME280;48769;51.624;5.886;2023-03-16T09:15:40;101337.38;;;8.09;88.25
62708;BME280;48769;51.624;5.886;2023-03-16T09:18:06;101343.75;;;8.29;86.21
62708;BME280;48769;51.624;5.886;2023-03-16T09:20:32;101333.56;;;8.18;85.97
62708;BME280;48769;51.624;5.886;2023-03-16T09:22:58;101332.66;;;8.19;85.55
62708;BME280;48769;51.624;5.886;2023-03-16T09:25:24;101328.91;;;8.26;86.16
62708;BME280;48769;51.624;5.886;2023-03-16T09:27:50;101329.84;;;8.24;86.14
62708;BME280;48769;51.624;5.886;2023-03-16T09:30:15;101341.31;;;8.23;86.86
62708;BME280;48769;51.624;5.886;2023-03-16T09:32:41;101338.06;;;8.14;86.03
62708;BME280;48769;51.624;5.886;2023-03-16T09:35:06;101340.59;;;8.17;86.05
62708;BME280;48769;51.624;5.886;2023-03-16T09:37:33;101341.31;;;8.23;86.10
62708;BME280;48769;51.624;5.886;2023-03-16T09:39:58;101335.50;;;8.39;85.62
62708;BME280;48769;51.624;5.886;2023-03-16T09:45:25;101323.94;;;8.69;84.96
62708;BME280;48769;51.624;5.886;2023-03-16T09:47:56;101322.56;;;8.82;83.46
62708;BME280;48769;51.624;5.886;2023-03-16T09:50:32;101322.03;;;8.97;82.32
62708;BME280;48769;51.624;5.886;2023-03-16T09:53:00;101323.28;;;9.10;84.17
62708;BME280;48769;51.624;5.886;2023-03-16T09:55:31;101326.69;;;9.36;83.59
62708;BME280;48769;51.624;5.886;2023-03-16T09:57:59;101322.47;;;9.54;81.54
62708;BME280;48769;51.624;5.886;2023-03-16T10:00:40;101317.94;;;9.57;80.25
62708;BME280;48769;51.624;5.886;2023-03-16T10:05:42;101312.91;;;9.73;79.26
62708;BME280;48769;51.624;5.886;2023-03-16T10:08:15;101313.50;;;10.02;78.33
62708;BME280;48769;51.624;5.886;2023-03-16T10:15:41;101286.81;;;10.50;75.04
62708;BME280;48769;51.624;5.886;2023-03-16T10:18:19;101275.50;;;10.86;73.42
62708;BME280;48769;51.624;5.886;2023-03-16T10:20:46;101277.34;;;10.84;72.23
62708;BME280;48769;51.624;5.886;2023-03-16T10:23:17;101268.66;;;10.82;72.10
62708;BME280;48769;51.624;5.886;2023-03-16T10:28:14;101270.56;;;11.35;71.61
62708;BME280;48769;51.624;5.886;2023-03-16T10:30:40;101255.06;;;11.81;69.66
62708;BME280;48769;51.624;5.886;2023-03-16T10:33:17;101242.09;;;12.29;66.95
62708;BME280;48769;51.624;5.886;2023-03-16T10:43:56;101247.72;;;12.56;64.90
62708;BME280;48769;51.624;5.886;2023-03-16T10:46:27;101251.16;;;12.58;64.13
62708;BME280;48769;51.624;5.886;2023-03-16T10:48:55;101240.25;;;12.96;64.17
62708;BME280;48769;51.624;5.886;2023-03-16T10:51:26;101232.41;;;13.10;61.06
62708;BME280;48769;51.624;5.886;2023-03-16T10:53:56;101241.16;;;12.79;63.35
62708;BME280;48769;51.624;5.886;2023-03-16T10:56:24;101247.09;;;13.63;63.11
62708;BME280;48769;51.624;5.886;2023-03-16T10:58:50;101228.13;;;13.99;60.59
62708;BME280;48769;51.624;5.886;2023-03-16T11:01:26;101217.28;;;14.47;58.90
62708;BME280;48769;51.624;5.886;2023-03-16T11:03:54;101220.22;;;14.14;59.70
62708;BME280;48769;51.624;5.886;2023-03-16T11:06:26;101208.50;;;13.88;56.61
62708;BME280;48769;51.624;5.886;2023-03-16T11:08:54;101213.34;;;13.65;56.85
62708;BME280;48769;51.624;5.886;2023-03-16T11:11:29;101210.72;;;13.79;58.54
62708;BME280;48769;51.624;5.886;2023-03-16T11:13:58;101219.19;;;13.56;59.02
62708;BME280;48769;51.624;5.886;2023-03-16T11:16:43;101211.81;;;13.91;59.63
62708;BME280;48769;51.624;5.886;2023-03-16T11:19:50;101211.66;;;14.09;60.12
62708;BME280;48769;51.624;5.886;2023-03-16T11:22:15;101201.75;;;13.96;59.16
62708;BME280;48769;51.624;5.886;2023-03-16T11:27:29;101189.56;;;13.48;58.99
62708;BME280;48769;51.624;5.886;2023-03-16T11:32:48;101180.03;;;12.98;62.46
62708;BME280;48769;51.624;5.886;2023-03-16T11:35:18;101182.25;;;13.05;61.40
62708;BME280;48769;51.624;5.886;2023-03-16T11:37:59;101177.38;;;12.98;61.20
62708;BME280;48769;51.624;5.886;2023-03-16T11:40:54;101171.47;;;12.93;60.53
62708;BME280;48769;51.624;5.886;2023-03-16T11:44:02;101167.97;;;13.08;60.72
62708;BME280;48769;51.624;5.886;2023-03-16T11:46:40;101168.75;;;13.10;59.23
62708;BME280;48769;51.624;5.886;2023-03-16T11:49:15;101165.81;;;12.99;59.31
62708;BME280;48769;51.624;5.886;2023-03-16T11:52:08;101157.47;;;12.91;58.01
62708;BME280;48769;51.624;5.886;2023-03-16T11:54:55;101149.16;;;12.97;58.91
62708;BME280;48769;51.624;5.886;2023-03-16T12:03:19;101143.47;;;13.19;59.74
62708;BME280;48769;51.624;5.886;2023-03-16T12:11:52;101138.03;;;13.52;58.54
62708;BME280;48769;51.624;5.886;2023-03-16T12:14:38;101131.25;;;13.76;59.37
62708;BME280;48769;51.624;5.886;2023-03-16T12:19:43;101113.53;;;14.20;58.64
62708;BME280;48769;51.624;5.886;2023-03-16T12:24:42;101103.88;;;14.05;55.89
62708;BME280;48769;51.624;5.886;2023-03-16T12:27:14;101101.75;;;14.10;54.23
62708;BME280;48769;51.624;5.886;2023-03-16T12:29:55;101100.53;;;14.15;55.77
62708;BME280;48769;51.624;5.886;2023-03-16T12:35:42;101077.88;;;15.19;52.28
62708;BME280;48769;51.624;5.886;2023-03-16T12:46:21;101058.56;;;17.73;46.36
62708;BME280;48769;51.624;5.886;2023-03-16T12:48:56;101048.56;;;17.88;46.15
62708;BME280;48769;51.624;5.886;2023-03-16T12:51:40;101047.16;;;18.39;45.24
62708;BME280;48769;51.624;5.886;2023-03-16T12:54:23;101038.03;;;18.53;43.85
62708;BME280;48769;51.624;5.886;2023-03-16T12:56:50;101031.28;;;18.15;44.25
62708;BME280;48769;51.624;5.886;2023-03-16T12:59:22;101030.06;;;18.08;44.41
62708;BME280;48769;51.624;5.886;2023-03-16T13:01:51;101030.84;;;18.42;43.88
62708;BME280;48769;51.624;5.886;2023-03-16T13:04:28;101037.25;;;18.73;43.89
62708;BME280;48769;51.624;5.886;2023-03-16T13:07:05;101023.31;;;18.90;43.31
62708;BME280;48769;51.624;5.886;2023-03-16T13:09:34;101021.25;;;19.15;41.32
62708;BME280;48769;51.624;5.886;2023-03-16T13:12:01;101008.91;;;19.03;40.84
62708;BME280;48769;51.624;5.886;2023-03-16T13:14:37;101007.19;;;19.23;42.05
62708;BME280;48769;51.624;5.886;2023-03-16T13:19:43;101000.16;;;19.64;40.81
62708;BME280;48769;51.624;5.886;2023-03-16T13:22:29;100994.09;;;19.71;38.49
62708;BME280;48769;51.624;5.886;2023-03-16T13:25:57;100984.59;;;19.98;38.54
62708;BME280;48769;51.624;5.886;2023-03-16T13:27:49;100980.78;;;19.91;38.40
62708;BME280;48769;51.624;5.886;2023-03-16T13:30:19;100987.72;;;20.03;37.51
62708;BME280;48769;51.624;5.886;2023-03-16T13:32:44;100982.72;;;19.89;38.17
62708;BME280;48769;51.624;5.886;2023-03-16T13:35:13;100982.44;;;19.82;38.35
62708;BME280;48769;51.624;5.886;2023-03-16T13:37:41;100990.91;;;19.87;38.35
62708;BME280;48769;51.624;5.886;2023-03-16T13:40:19;100985.00;;;19.83;37.66
62708;BME280;48769;51.624;5.886;2023-03-16T13:42:48;100975.22;;;19.52;36.52
62708;BME280;48769;51.624;5.886;2023-03-16T13:45:22;100976.28;;;19.39;39.40
62708;BME280;48769;51.624;5.886;2023-03-16T13:47:49;100975.59;;;19.17;38.71
62708;BME280;48769;51.624;5.886;2023-03-16T13:50:17;100970.50;;;19.13;38.39
62708;BME280;48769;51.624;5.886;2023-03-16T13:52:51;100969.59;;;18.71;39.03
62708;BME280;48769;51.624;5.886;2023-03-16T13:55:17;100959.22;;;18.45;40.74
62708;BME280;48769;51.624;5.886;2023-03-16T13:57:47;100967.56;;;18.31;40.37
62708;BME280;48769;51.624;5.886;2023-03-16T14:00:20;100950.50;;;18.43;39.21
62708;BME280;48769;51.624;5.886;2023-03-16T14:02:51;100957.34;;;18.25;41.39
62708;BME280;48769;51.624;5.886;2023-03-16T14:05:21;100950.34;;;18.13;40.41
62708;BME280;48769;51.624;5.886;2023-03-16T14:07:48;100947.94;;;17.87;40.09